createdAt,value
2023-05-10T00:06:35.343Z,19.66
2023-05-10T00:21:37.012Z,19.63
2023-05-10T00:36:38.769Z,19.61
2023-05-10T00:51:40.615Z,19.59
2023-05-10T01:06:43.547Z,19.57
2023-05-10T01:22:01.988Z,19.53
2023-05-10T01:37:09.802Z,19.51
2023-05-10T01:52:15.111Z,19.48
2023-05-10T02:07:17.702Z,19.45
2023-05-10T02:22:20.952Z,19.43
2023-05-10T02:37:23.635Z,19.42
2023-05-10T02:52:31.435Z,19.40
2023-05-10T03:07:34.430Z,19.37
2023-05-10T03:22:41.047Z,19.35
2023-05-10T03:37:42.692Z,19.34
2023-05-10T03:52:44.433Z,19.31
2023-05-10T04:07:46.141Z,19.30
2023-05-10T04:22:47.815Z,19.28
2023-05-10T04:37:49.542Z,19.27
2023-05-10T04:52:52.684Z,19.27
2023-05-10T05:07:54.879Z,19.25
2023-05-10T05:22:56.513Z,19.24
2023-05-10T05:37:58.290Z,19.23
2023-05-10T05:53:00.069Z,19.21
2023-05-10T06:08:01.821Z,19.20
2023-05-10T06:23:03.580Z,19.21
2023-05-10T06:38:05.297Z,19.20
2023-05-10T06:53:06.984Z,19.20
2023-05-10T07:08:08.689Z,19.21
2023-05-10T07:23:10.450Z,19.20
2023-05-10T07:38:12.110Z,19.21
2023-05-10T07:53:13.745Z,19.20
2023-05-10T08:08:15.687Z,19.20
2023-05-10T08:23:17.353Z,19.22
2023-05-10T08:38:19.590Z,19.21
2023-05-10T08:53:22.555Z,19.21
2023-05-10T09:08:25.456Z,19.20
2023-05-10T09:23:27.139Z,19.21
2023-05-10T09:38:28.828Z,19.20
2023-05-10T09:53:30.680Z,19.20
2023-05-10T10:08:32.840Z,19.22
2023-05-10T10:23:35.711Z,19.25
2023-05-10T10:38:38.902Z,19.28
2023-05-10T10:53:42.347Z,19.31
2023-05-10T11:08:44.117Z,19.33
2023-05-10T11:23:51.787Z,19.34
2023-05-10T11:38:54.269Z,19.36
2023-05-10T11:53:57.823Z,19.39
2023-05-10T12:08:59.962Z,19.42
2023-05-10T12:24:04.299Z,19.48
2023-05-10T12:39:06.064Z,19.59
2023-05-10T12:54:07.838Z,19.61
2023-05-10T13:09:09.514Z,19.65
2023-05-10T13:24:12.367Z,19.63
2023-05-10T13:39:14.174Z,19.59
2023-05-10T13:54:15.897Z,19.59
2023-05-10T14:09:17.729Z,19.61
2023-05-10T14:24:19.370Z,19.62
2023-05-10T14:39:21.175Z,19.66
2023-05-10T14:54:22.884Z,19.69
2023-05-10T15:09:24.516Z,19.72
2023-05-10T15:24:26.480Z,19.74
2023-05-10T15:39:28.261Z,19.75
2023-05-10T15:54:30.039Z,19.77
2023-05-10T16:09:31.728Z,19.77
2023-05-10T16:24:33.441Z,19.76
2023-05-10T16:39:35.164Z,19.74
2023-05-10T16:54:46.277Z,19.73
2023-05-10T17:09:47.980Z,19.70
2023-05-10T17:24:49.721Z,19.69
2023-05-10T17:39:51.400Z,19.68
2023-05-10T17:54:53.036Z,19.67
2023-05-10T18:09:54.756Z,19.64
2023-05-10T18:24:56.447Z,19.60
2023-05-10T18:39:58.121Z,19.58
2023-05-10T18:54:59.763Z,19.56
2023-05-10T19:10:01.544Z,19.53
2023-05-10T19:25:03.419Z,19.53
2023-05-10T19:40:05.620Z,19.51
2023-05-10T19:55:07.717Z,19.51
2023-05-10T20:10:09.882Z,19.48
2023-05-10T20:25:12.032Z,19.47
2023-05-10T20:40:13.742Z,19.45
2023-05-10T20:55:15.501Z,19.44
2023-05-10T21:10:17.559Z,19.42
2023-05-10T21:25:19.429Z,19.42
2023-05-10T21:40:21.141Z,19.39
2023-05-10T21:55:23.019Z,19.39
2023-05-10T22:10:24.729Z,19.37
2023-05-10T22:25:26.531Z,19.37
2023-05-10T22:40:28.268Z,19.33
2023-05-10T22:55:30.435Z,19.34
2023-05-10T23:10:32.143Z,19.33
2023-05-10T23:25:35.540Z,19.29
2023-05-10T23:40:37.199Z,19.28
2023-05-10T23:55:38.867Z,19.28
